Timeline UpdatesTrip UpdatesNews PostsPvt Posts♥♥Travel TipsAdmin PostsConv PostsFollowed PostsChat RequestsBlog PostsPNR Posts

Disclaimer
Search
 
 
Tue Nov 25, 2014 01:43:41 ISTHomeTrainsΣChainsAtlasPNRForumGalleryNewsFAQTripsMembersLoginFeedback
No Recent News for this Train
Other Trains in the News **new
Latest...
⇐ Return Journey: Train# 59208

59207/Bhavnagar Okha Passenger

Time-Table HAS CHANGED.
Sep 02 2014 (12:26AM)
Change Departure Station:
Change Arrival Station:
Post a Train Travel TipPost a Train Travel Tip **new
Post a Comment/Question/Picture/VideoPost a Comment/Question/Picture/Video
Pantry/Catering
✕ NO Pantry Car
✕ NO Catering
RSA - Rake Sharing
59267/59268 Bhavnagar-Palitana Passenger; RSA 09201/09202; BVC-SUNR(Triweekly) PASS.
Rake/Coach Composition
ENG.SLR.GEN.GEN.S1.S2.GEN.GEN.SLR(RMS).; By Darshan Chauhan Entry# 684153
Loco
LOCO RTM WDM 3A.
News    PNR    Forum    Time-Table    Availability    Fare Chart    Map    Arr/Dep History    Trips    Gallery    ΣChains    X/O    Timeline    
Travel Time: 7h 39m    29 halts    Distance: 256 km    Avg Speed: 33 km/hr
Type: Passenger
Zone: WR/Western
Departs @ 21:25 (Avg 1m late)
Platform# 1
SMTWTFS
Bhavnagar Terminus/BVC 
Arrives @ 05:04 +1 night (Avg 4m late)
Platform# ???
SMTWTFS
Sindhawadar/SDD 

29 halts. 36 intermediate Stations between Bhavnagar Terminus and Sindhawadar

Show ALL intermediate Stations  Show Old Time-Table

#TrkCodeStation NameX/OArrivesAvgDepartsAvgHaltPFDay#KmSpeedElevZoneAddress
1|--|BVCBhavnagar Terminus (2)»  -21:25+1110.02711mWRBhavnagar, Gujarat
2|--|BVPBhavnagar Para  21:30 21:31+421:31 21:32+71m--12.74313mWRBhavnagar, Gujarat
3|--|VTJVartej  21:41 21:42+921:42 21:43+91m--19.94524mWRBhavnagar, Gujarat
4|--|KDMRKodiyar Mandir  21:49 21:50+1121:50 21:51+111m1115.24592mWRSH 21, Gujarat
5|--|SOJNSihor Gujarat  21:57 21:58+1321:58 21:59+131m--120.45042mWRShihor, Gujarat
6|--|SGDSongadh (1)  22:07 22:08+1322:08 22:09+131m1127.95240mWRBhavnagar, Gujarat
7|--|BJUDBajud  22:15 22:16-22:16 22:17-1m--134.05137mWRState Highway 31, Gujarat
8|--|SOASanosraX  22:25 22:22+1122:26 22:23+131m1138.34436mWRState Highway 25, Gujarat
9|--|DLJDhola Junction  22:36 22:38+822:37 22:39+91m1149.36137mWRDhola, Gujarat
10|--|UJUjalvav  22:47 22:49+1022:48 22:50+111m--159.55764mWRState Highway 31, Gujarat
11|--|ALMRAlampur  22:56 22:57+1122:57 22:58+121m--166.25659mWRState Highway 31, Gujarat
12|--|NGANingala Junction  23:04 23:06+1323:05 23:07+141m--173.76457mWRState Highway 117, Gujarat
13|--|LTDLathidad  23:13 23:14+1523:14 23:15+161m--181.24768mWRTajpar Rd, Gujarat
14|--|BTDBotad Junction (5)  23:28 23:29+1423:30 23:31+172m1192.26296mWRBotad, Gujarat
15|--|KDIKundli  23:40 23:42+2123:41 23:43+211m--1103.76586mWRState Highway 38, Gujarat
16|--|RURRanpur  23:51 23:53+2123:52 23:54+211m--1114.46561mWRRanpur, Gujarat
17|--|CDAChuda  00:07 00:09+2200:08 00:10+231m--2130.76063mWRState Highway 38, Gujarat
18|--|LMLimbdi (1)  00:18 00:20+2200:19 00:21+221m12140.86851mWRLimbdi, Gujarat
19|--|WCWadhwan City  00:53 00:39+2000:54 00:40+201m--2161.14367mWRSurendranagar, Gujarat
20|--|JVNJorawarnagar Junction (1)  01:00 00:45-01:01 00:46-1m12164.63369mWRSurendra Nagar, Gujarat
21|--|SRGTSurendranagar Gate (1)  01:07 00:51-01:08 00:52-1m12167.4471mWRSurendranagar, Gujarat
22|--|SUNRSurendranagar Junction (4)X  01:25+801:40+1215m12169.63472mWRSurendra Nagar, Gujarat
23|--|DXRDigsar  02:03 02:04+1702:04 02:05+191m--2183.348100mWRState Highway 17, Gujarat
24|--|MOLMuli Road  02:14 02:15+1902:15 02:16+191m12191.350108mWRSurendranagar, Gujarat
25|--|RARampardaXO  02:26 02:27+1802:27 02:28+261m--2200.520141mWRSurendranagar, Gujarat
26|--|VDVagdiya  02:46 02:47+1702:47 02:53+261 6m--2206.978149mWRState Highway 113, Gujarat
27|--|THANThan Junction (3)  02:59 03:01+1703:01 03:03+212m12217.361138mWRThangadh, Gujarat
28|--|DLDaladi  03:16 03:17+3203:17 03:18+331m--2231.444115mWRDaladi, Gujarat
29|--|WKRWankaner Junction (4)X  03:35+2804:43+368m--2243.93787mWRWankaner, Gujarat
30|--|AXAAmarsar  04:54 04:55+204:55 04:56+41m--2251.239113mWRRajkot, Gujarat
31|--|SDDSindhawadar•  05:03 05:04+405:04 05:05+91m--2256.431105mWRSindhavadar, Gujarat
32|--|KNKTKanakotX  05:16 05:18+505:18 05:24+92 6m--2263.170133mWRState Highway 113, Gujarat
33|--|KHCKhorana  05:33 05:34+905:34 05:35+121m--2274.932131mWRState Highway 113, Gujarat
34|--|RJTRajkot Junction (5)XO  05:55+507:05+170m32285.650128mWRRajkot, Gujarat
35|--|KHDIKhanderi  07:17 07:18+607:18 07:19+61m--2296.460111mWRRajkot, Gujarat
36|--|PDHPadadhari  07:32 07:33+507:33 07:34+71m--2310.44671mWRPaddhari, Gujarat
37|--|CXChanol  07:42 07:43+607:43 07:44+71m--2317.34889mWRState Highway 25, Gujarat
38|--|HMHadmatiya Junction  07:52 07:53+507:53 07:54+51m--2324.46770mWRHadmatiya Junction Railway Station, Gujarat
39|--|JALDJaliya DevaniX  08:00 08:01+608:01 08:02+131m--2332.34250mWRRanuja Village Rd, Gujarat
40|--|WTJJam Wanthali  08:12 08:13+1208:13 08:14+121m--2339.95952mWRRanuja Village Rd, Gujarat
41|--|ALBAlia Bada  08:25 08:26+1108:26 08:27+111m--2351.64627mWRJamnagar, Gujarat
42|--|HAPAHapa (3)X  08:40+908:45+115m--2361.54316mWRJamnagar, Gujarat
43|--|JAMJamnagar (2)X  08:57+1409:00+173m--2370.25514mWRJamnagar, Gujarat
44|--|LKBLLakhabawalX  09:12 09:13+1809:13 09:25+71 12m--2382.05721mWRJamnagar, Gujarat
45|--|PPLIPipliX  09:34 09:35+709:35 09:36+71m--2391.53930mWRJamnagar, Gujarat
46|--|KNLSKanalus JunctionX  09:43 09:44+709:44 09:50+31 6m--2396.64636mWRJamnagar, Gujarat
47|--|MDPRModpur  10:03 10:04+210:04 10:05+51m--2407.45647mWRKhambhalia-Lalpur, Gujarat
48|--|SYQSinhan  10:14 10:15-10:15 10:16-1m--2416.75850mWRSH 6, Gujarat
49|--|KMBLKhambhalia  10:24+710:26+72m--2424.54949mWRKhambhalia, Gujarat
50|--|VQDViramdad  10:34 10:35-10:35 10:36-1m--2431.96549mWRKhambhalia-Dwarka (SH 6), Gujarat
51|--|BHTLBhatel  10:45 10:46+510:46 10:47+51m--2442.64735mWRJamnagar, Gujarat
52|--|BPKABhopalka  11:04 11:05+511:05 11:06+61m--2456.85046mWRJamnagar, Gujarat
53|--|BHTABhatiya  11:16 11:18+511:18 11:20+42m--2466.87034mWRNational Highway 8E, Gujarat
54|--|KRGAKuranga  11:29 11:30-11:30 11:31-1m--2478.46312mWRJamnagar, Gujarat
55|--|OKDOkha Madhi  11:38 11:39+411:39 11:40+51m--2486.71085mWRNH 8E, Gujarat
56|--|GRJAGorinja  11:49 11:50+411:50 11:51+41m--2504.7235mWRKhambhalia-Dwarka (SH 6), Gujarat
57|--|DWKDwarka (2)X  12:00 12:01+812:01 12:06+81 5m--2508.53814mWRDwarka, Gujarat
58|--|VVAVarvala  12:13 12:14-12:14 12:15-1m--2513.62914mWRJamnagar, Gujarat
59|--|BMRNBhimranaX  12:36 12:38-212:38 12:48+32 10m--2524.8356mWRBhimrana, Gujarat
60|--|MTHPMithapur  12:52 12:53-12:53 12:54-1m--2527.7223mWRJamnagar, Gujarat
61|--|OKHAOkha (3)  13:20-6---2537.2-5mWROkha, Gujarat
Scroll to Top
Scroll to Bottom